sensor_id;sensor_type;location;lat;lon;timestamp;temperature;humidity
20722;DHT22;10522;52.198;9.890;2023-09-19T00:00:42;15.80;99.90
20722;DHT22;10522;52.198;9.890;2023-09-19T00:03:10;15.90;99.90
20722;DHT22;10522;52.198;9.890;2023-09-19T00:05:38;16.00;99.90
20722;DHT22;10522;52.198;9.890;2023-09-19T00:08:04;16.00;99.90
20722;DHT22;10522;52.198;9.890;2023-09-19T00:10:30;16.00;99.90
20722;DHT22;10522;52.198;9.890;2023-09-19T00:12:58;16.10;99.90
20722;DHT22;10522;52.198;9.890;2023-09-19T00:15:26;16.10;99.90
20722;DHT22;10522;52.198;9.890;2023-09-19T00:17:55;16.00;99.90
20722;DHT22;10522;52.198;9.890;2023-09-19T00:20:26;16.00;99.90
20722;DHT22;10522;52.198;9.890;2023-09-19T00:22:52;16.00;99.90
20722;DHT22;10522;52.198;9.890;2023-09-19T00:25:20;16.00;99.90
20722;DHT22;10522;52.198;9.890;2023-09-19T00:27:46;16.00;99.90
20722;DHT22;10522;52.198;9.890;2023-09-19T00:30:15;16.00;99.90
20722;DHT22;10522;52.198;9.890;2023-09-19T00:32:47;16.00;99.90
20722;DHT22;10522;52.198;9.890;2023-09-19T00:35:17;16.10;99.90
20722;DHT22;10522;52.198;9.890;2023-09-19T00:37:45;16.00;99.90
20722;DHT22;10522;52.198;9.890;2023-09-19T00:40:11;16.00;99.90
20722;DHT22;10522;52.198;9.890;2023-09-19T00:42:59;16.00;99.90
20722;DHT22;10522;52.198;9.890;2023-09-19T00:45:25;16.00;99.90
20722;DHT22;10522;52.198;9.890;2023-09-19T00:47:51;16.00;99.90
20722;DHT22;10522;52.198;9.890;2023-09-19T00:50:22;15.90;99.90
20722;DHT22;10522;52.198;9.890;2023-09-19T00:52:54;16.00;99.90
20722;DHT22;10522;52.198;9.890;2023-09-19T00:55:24;16.00;99.90
20722;DHT22;10522;52.198;9.890;2023-09-19T00:57:50;16.10;99.90
20722;DHT22;10522;52.198;9.890;2023-09-19T01:00:19;15.90;99.90
20722;DHT22;10522;52.198;9.890;2023-09-19T01:02:55;16.00;99.90
20722;DHT22;10522;52.198;9.890;2023-09-19T01:05:21;16.00;99.90
20722;DHT22;10522;52.198;9.890;2023-09-19T01:07:47;15.90;99.90
20722;DHT22;10522;52.198;9.890;2023-09-19T01:10:18;15.90;99.90
20722;DHT22;10522;52.198;9.890;2023-09-19T01:21:23;15.90;99.90
20722;DHT22;10522;52.198;9.890;2023-09-19T01:29:49;15.80;99.90
20722;DHT22;10522;52.198;9.890;2023-09-19T01:32:17;15.80;99.90
20722;DHT22;10522;52.198;9.890;2023-09-19T01:34:51;15.80;99.90
20722;DHT22;10522;52.198;9.890;2023-09-19T01:37:21;15.90;99.90
20722;DHT22;10522;52.198;9.890;2023-09-19T01:39:58;15.80;99.90
20722;DHT22;10522;52.198;9.890;2023-09-19T01:43:02;16.00;99.90
20722;DHT22;10522;52.198;9.890;2023-09-19T01:48:46;16.00;99.90
20722;DHT22;10522;52.198;9.890;2023-09-19T01:51:27;16.00;99.90
20722;DHT22;10522;52.198;9.890;2023-09-19T01:54:26;16.00;99.90
20722;DHT22;10522;52.198;9.890;2023-09-19T02:00:27;16.20;99.90
20722;DHT22;10522;52.198;9.890;2023-09-19T02:02:56;16.20;99.90
20722;DHT22;10522;52.198;9.890;2023-09-19T02:05:24;16.10;99.90
20722;DHT22;10522;52.198;9.890;2023-09-19T02:07:51;16.20;99.90
20722;DHT22;10522;52.198;9.890;2023-09-19T02:10:18;16.10;99.90
20722;DHT22;10522;52.198;9.890;2023-09-19T02:12:44;16.20;99.90
20722;DHT22;10522;52.198;9.890;2023-09-19T02:15:10;16.10;99.90
20722;DHT22;10522;52.198;9.890;2023-09-19T02:17:36;16.10;99.90
20722;DHT22;10522;52.198;9.890;2023-09-19T02:20:01;16.20;99.90
20722;DHT22;10522;52.198;9.890;2023-09-19T02:22:29;16.20;99.90
20722;DHT22;10522;52.198;9.890;2023-09-19T02:24:55;16.30;99.90
20722;DHT22;10522;52.198;9.890;2023-09-19T02:27:34;16.30;99.90
20722;DHT22;10522;52.198;9.890;2023-09-19T02:30:00;16.20;99.90
20722;DHT22;10522;52.198;9.890;2023-09-19T02:32:30;16.30;99.90
20722;DHT22;10522;52.198;9.890;2023-09-19T02:34:57;16.30;99.90
20722;DHT22;10522;52.198;9.890;2023-09-19T02:37:23;16.30;99.90
20722;DHT22;10522;52.198;9.890;2023-09-19T02:39:50;16.30;99.90
20722;DHT22;10522;52.198;9.890;2023-09-19T02:42:20;16.30;99.90
20722;DHT22;10522;52.198;9.890;2023-09-19T02:44:54;16.30;99.90
20722;DHT22;10522;52.198;9.890;2023-09-19T02:47:22;16.30;99.90
20722;DHT22;10522;52.198;9.890;2023-09-19T02:49:48;16.20;99.90
20722;DHT22;10522;52.198;9.890;2023-09-19T02:52:15;16.10;99.90
20722;DHT22;10522;52.198;9.890;2023-09-19T02:54:40;16.00;99.90
20722;DHT22;10522;52.198;9.890;2023-09-19T02:57:07;15.90;99.90
20722;DHT22;10522;52.198;9.890;2023-09-19T02:59:34;15.90;99.90
20722;DHT22;10522;52.198;9.890;2023-09-19T03:02:02;15.90;99.90
20722;DHT22;10522;52.198;9.890;2023-09-19T03:04:54;15.90;99.90
20722;DHT22;10522;52.198;9.890;2023-09-19T03:07:29;15.80;99.90
20722;DHT22;10522;52.198;9.890;2023-09-19T03:09:55;15.80;99.90
20722;DHT22;10522;52.198;9.890;2023-09-19T03:12:23;15.80;99.90
20722;DHT22;10522;52.198;9.890;2023-09-19T03:18:06;15.70;99.90
20722;DHT22;10522;52.198;9.890;2023-09-19T03:21:10;15.60;99.90
20722;DHT22;10522;52.198;9.890;2023-09-19T03:23:38;15.60;99.90
20722;DHT22;10522;52.198;9.890;2023-09-19T03:26:18;15.60;99.90
20722;DHT22;10522;52.198;9.890;2023-09-19T03:28:43;15.60;99.90
20722;DHT22;10522;52.198;9.890;2023-09-19T03:31:09;15.50;99.90
20722;DHT22;10522;52.198;9.890;2023-09-19T03:33:37;15.60;99.90
20722;DHT22;10522;52.198;9.890;2023-09-19T03:36:04;15.60;99.90
20722;DHT22;10522;52.198;9.890;2023-09-19T03:38:37;15.70;99.90
20722;DHT22;10522;52.198;9.890;2023-09-19T03:44:10;15.70;99.90
20722;DHT22;10522;52.198;9.890;2023-09-19T03:46:36;15.60;99.90
20722;DHT22;10522;52.198;9.890;2023-09-19T03:49:02;15.50;99.90
20722;DHT22;10522;52.198;9.890;2023-09-19T03:51:28;15.50;99.90
20722;DHT22;10522;52.198;9.890;2023-09-19T03:53:53;15.40;99.90
20722;DHT22;10522;52.198;9.890;2023-09-19T03:56:19;15.40;99.90
20722;DHT22;10522;52.198;9.890;2023-09-19T03:58:45;15.40;99.90
20722;DHT22;10522;52.198;9.890;2023-09-19T04:01:10;15.40;99.90
20722;DHT22;10522;52.198;9.890;2023-09-19T04:03:36;15.40;99.90
20722;DHT22;10522;52.198;9.890;2023-09-19T04:06:14;15.30;99.90
20722;DHT22;10522;52.198;9.890;2023-09-19T04:08:40;15.30;99.90
20722;DHT22;10522;52.198;9.890;2023-09-19T04:11:06;15.20;99.90
20722;DHT22;10522;52.198;9.890;2023-09-19T04:13:31;15.20;99.90
20722;DHT22;10522;52.198;9.890;2023-09-19T04:15:57;15.20;99.90
20722;DHT22;10522;52.198;9.890;2023-09-19T04:18:23;15.30;99.90
20722;DHT22;10522;52.198;9.890;2023-09-19T04:20:52;15.30;99.90
20722;DHT22;10522;52.198;9.890;2023-09-19T04:23:18;15.10;99.90
20722;DHT22;10522;52.198;9.890;2023-09-19T04:25:46;15.10;99.90
20722;DHT22;10522;52.198;9.890;2023-09-19T04:28:11;15.10;99.90
20722;DHT22;10522;52.198;9.890;2023-09-19T04:30:38;15.00;99.90
20722;DHT22;10522;52.198;9.890;2023-09-19T04:33:06;15.00;99.90
20722;DHT22;10522;52.198;9.890;2023-09-19T04:35:32;15.00;99.90
20722;DHT22;10522;52.198;9.890;2023-09-19T04:37:58;14.90;99.90
20722;DHT22;10522;52.198;9.890;2023-09-19T04:40:24;14.90;99.90
20722;DHT22;10522;52.198;9.890;2023-09-19T04:42:58;14.90;99.90
20722;DHT22;10522;52.198;9.890;2023-09-19T04:45:28;14.90;99.90
20722;DHT22;10522;52.198;9.890;2023-09-19T04:47:54;14.80;99.90
20722;DHT22;10522;52.198;9.890;2023-09-19T04:50:20;14.90;99.90
20722;DHT22;10522;52.198;9.890;2023-09-19T04:52:53;14.90;99.90
20722;DHT22;10522;52.198;9.890;2023-09-19T04:55:19;14.90;99.90
20722;DHT22;10522;52.198;9.890;2023-09-19T04:57:46;14.90;99.90
20722;DHT22;10522;52.198;9.890;2023-09-19T05:00:16;14.80;99.90
20722;DHT22;10522;52.198;9.890;2023-09-19T05:02:45;14.80;99.90
20722;DHT22;10522;52.198;9.890;2023-09-19T05:05:11;14.80;99.90
20722;DHT22;10522;52.198;9.890;2023-09-19T05:07:41;14.80;99.90
20722;DHT22;10522;52.198;9.890;2023-09-19T05:10:08;14.90;99.90
20722;DHT22;10522;52.198;9.890;2023-09-19T05:12:37;14.90;99.90
20722;DHT22;10522;52.198;9.890;2023-09-19T05:15:03;14.80;99.90
20722;DHT22;10522;52.198;9.890;2023-09-19T05:17:30;14.80;99.90
20722;DHT22;10522;52.198;9.890;2023-09-19T05:19:57;14.80;99.90
20722;DHT22;10522;52.198;9.890;2023-09-19T05:22:23;14.80;99.90
20722;DHT22;10522;52.198;9.890;2023-09-19T05:24:51;14.70;99.90
20722;DHT22;10522;52.198;9.890;2023-09-19T05:27:18;14.80;99.90
20722;DHT22;10522;52.198;9.890;2023-09-19T05:29:46;14.70;99.90
20722;DHT22;10522;52.198;9.890;2023-09-19T05:32:12;14.80;99.90
20722;DHT22;10522;52.198;9.890;2023-09-19T05:34:45;14.80;99.90
20722;DHT22;10522;52.198;9.890;2023-09-19T05:37:48;14.70;99.90
20722;DHT22;10522;52.198;9.890;2023-09-19T05:40:18;14.80;99.90
20722;DHT22;10522;52.198;9.890;2023-09-19T05:43:01;14.80;99.90
20722;DHT22;10522;52.198;9.890;2023-09-19T05:45:27;14.90;99.90
20722;DHT22;10522;52.198;9.890;2023-09-19T05:47:54;14.80;99.90
20722;DHT22;10522;52.198;9.890;2023-09-19T05:50:30;14.90;99.90
20722;DHT22;10522;52.198;9.890;2023-09-19T05:53:20;14.80;99.90
20722;DHT22;10522;52.198;9.890;2023-09-19T05:55:57;14.70;99.90
20722;DHT22;10522;52.198;9.890;2023-09-19T05:58:24;14.80;99.90
20722;DHT22;10522;52.198;9.890;2023-09-19T06:00:50;14.80;99.90
20722;DHT22;10522;52.198;9.890;2023-09-19T06:03:15;14.80;99.90
20722;DHT22;10522;52.198;9.890;2023-09-19T06:05:42;14.90;99.90
20722;DHT22;10522;52.198;9.890;2023-09-19T06:08:09;14.90;99.90
20722;DHT22;10522;52.198;9.890;2023-09-19T06:10:35;15.00;99.90
20722;DHT22;10522;52.198;9.890;2023-09-19T06:13:04;15.10;99.90
20722;DHT22;10522;52.198;9.890;2023-09-19T06:15:31;15.30;99.90
20722;DHT22;10522;52.198;9.890;2023-09-19T06:17:59;15.20;99.90
20722;DHT22;10522;52.198;9.890;2023-09-19T06:20:26;15.10;99.90
20722;DHT22;10522;52.198;9.890;2023-09-19T06:22:52;15.10;99.90
20722;DHT22;10522;52.198;9.890;2023-09-19T06:25:19;15.00;99.90
20722;DHT22;10522;52.198;9.890;2023-09-19T06:28:14;15.10;99.90
20722;DHT22;10522;52.198;9.890;2023-09-19T06:30:48;15.20;99.90
20722;DHT22;10522;52.198;9.890;2023-09-19T06:33:14;15.10;99.90
20722;DHT22;10522;52.198;9.890;2023-09-19T06:35:39;15.10;99.90
20722;DHT22;10522;52.198;9.890;2023-09-19T06:38:05;15.00;99.90
20722;DHT22;10522;52.198;9.890;2023-09-19T06:40:31;15.10;99.90
20722;DHT22;10522;52.198;9.890;2023-09-19T06:42:57;15.20;99.90
20722;DHT22;10522;52.198;9.890;2023-09-19T06:45:24;15.20;99.90
20722;DHT22;10522;52.198;9.890;2023-09-19T06:47:52;15.30;99.90
20722;DHT22;10522;52.198;9.890;2023-09-19T06:50:19;15.30;99.90
20722;DHT22;10522;52.198;9.890;2023-09-19T06:53:04;15.30;99.90
20722;DHT22;10522;52.198;9.890;2023-09-19T06:55:58;15.30;99.90
20722;DHT22;10522;52.198;9.890;2023-09-19T06:58:24;15.30;99.90
20722;DHT22;10522;52.198;9.890;2023-09-19T07:01:04;15.30;99.90
20722;DHT22;10522;52.198;9.890;2023-09-19T07:03:30;15.30;99.90
20722;DHT22;10522;52.198;9.890;2023-09-19T07:06:18;15.30;99.90
20722;DHT22;10522;52.198;9.890;2023-09-19T07:08:44;15.40;99.90
20722;DHT22;10522;52.198;9.890;2023-09-19T07:11:10;15.40;99.90
20722;DHT22;10522;52.198;9.890;2023-09-19T07:13:37;15.40;99.90
20722;DHT22;10522;52.198;9.890;2023-09-19T07:16:04;15.40;99.90
20722;DHT22;10522;52.198;9.890;2023-09-19T07:18:29;15.60;99.90
20722;DHT22;10522;52.198;9.890;2023-09-19T07:21:05;15.60;99.90
20722;DHT22;10522;52.198;9.890;2023-09-19T07:23:37;15.80;99.90
20722;DHT22;10522;52.198;9.890;2023-09-19T07:26:03;15.80;99.90
20722;DHT22;10522;52.198;9.890;2023-09-19T07:28:31;15.80;99.90
20722;DHT22;10522;52.198;9.890;2023-09-19T07:30:57;15.90;99.90
20722;DHT22;10522;52.198;9.890;2023-09-19T07:33:27;16.10;99.90
20722;DHT22;10522;52.198;9.890;2023-09-19T07:35:53;16.10;99.90
20722;DHT22;10522;52.198;9.890;2023-09-19T07:38:23;16.10;99.90
20722;DHT22;10522;52.198;9.890;2023-09-19T07:40:48;16.00;99.90
20722;DHT22;10522;52.198;9.890;2023-09-19T07:43:14;16.00;99.90
20722;DHT22;10522;52.198;9.890;2023-09-19T07:45:39;16.00;99.90
20722;DHT22;10522;52.198;9.890;2023-09-19T07:48:18;16.30;99.90
20722;DHT22;10522;52.198;9.890;2023-09-19T07:50:44;16.10;99.90
20722;DHT22;10522;52.198;9.890;2023-09-19T07:53:10;16.20;99.90
20722;DHT22;10522;52.198;9.890;2023-09-19T07:55:38;16.30;99.90
20722;DHT22;10522;52.198;9.890;2023-09-19T07:58:06;16.20;99.90
20722;DHT22;10522;52.198;9.890;2023-09-19T08:00:32;16.20;99.90
20722;DHT22;10522;52.198;9.890;2023-09-19T08:03:00;16.20;99.90
20722;DHT22;10522;52.198;9.890;2023-09-19T08:05:26;16.10;99.90
20722;DHT22;10522;52.198;9.890;2023-09-19T08:07:52;16.20;99.90
20722;DHT22;10522;52.198;9.890;2023-09-19T08:10:19;16.20;99.90
20722;DHT22;10522;52.198;9.890;2023-09-19T08:12:46;16.20;99.90
20722;DHT22;10522;52.198;9.890;2023-09-19T08:15:19;16.20;99.90
20722;DHT22;10522;52.198;9.890;2023-09-19T08:17:45;16.20;99.90
20722;DHT22;10522;52.198;9.890;2023-09-19T08:20:12;16.30;99.90
20722;DHT22;10522;52.198;9.890;2023-09-19T08:22:51;16.20;99.90
20722;DHT22;10522;52.198;9.890;2023-09-19T08:25:21;16.30;99.90
20722;DHT22;10522;52.198;9.890;2023-09-19T08:27:48;16.40;99.90
20722;DHT22;10522;52.198;9.890;2023-09-19T08:30:16;16.50;99.90
20722;DHT22;10522;52.198;9.890;2023-09-19T08:32:43;16.60;99.90
20722;DHT22;10522;52.198;9.890;2023-09-19T08:35:34;16.70;99.90
20722;DHT22;10522;52.198;9.890;2023-09-19T08:38:00;16.90;99.90
20722;DHT22;10522;52.198;9.890;2023-09-19T08:40:30;17.10;99.90
20722;DHT22;10522;52.198;9.890;2023-09-19T08:42:59;17.20;99.90
20722;DHT22;10522;52.198;9.890;2023-09-19T08:45:26;17.20;99.90
20722;DHT22;10522;52.198;9.890;2023-09-19T08:50:31;17.10;99.90
20722;DHT22;10522;52.198;9.890;2023-09-19T08:53:06;17.20;99.90
20722;DHT22;10522;52.198;9.890;2023-09-19T08:55:36;17.20;99.90
20722;DHT22;10522;52.198;9.890;2023-09-19T08:58:03;17.20;99.90
20722;DHT22;10522;52.198;9.890;2023-09-19T09:00:33;17.30;99.90
20722;DHT22;10522;52.198;9.890;2023-09-19T09:03:01;17.20;99.90
20722;DHT22;10522;52.198;9.890;2023-09-19T09:05:28;17.30;99.90
20722;DHT22;10522;52.198;9.890;2023-09-19T09:07:55;17.40;99.90
20722;DHT22;10522;52.198;9.890;2023-09-19T09:10:22;17.40;99.90
20722;DHT22;10522;52.198;9.890;2023-09-19T09:12:52;17.50;99.90
20722;DHT22;10522;52.198;9.890;2023-09-19T09:15:22;17.40;99.90
20722;DHT22;10522;52.198;9.890;2023-09-19T09:17:49;17.30;99.90
20722;DHT22;10522;52.198;9.890;2023-09-19T09:20:19;17.40;99.90
20722;DHT22;10522;52.198;9.890;2023-09-19T09:22:56;17.50;99.90
20722;DHT22;10522;52.198;9.890;2023-09-19T09:25:49;17.40;99.90
20722;DHT22;10522;52.198;9.890;2023-09-19T09:28:20;17.50;99.90
20722;DHT22;10522;52.198;9.890;2023-09-19T09:30:47;17.50;99.90
20722;DHT22;10522;52.198;9.890;2023-09-19T09:33:14;17.60;99.90
20722;DHT22;10522;52.198;9.890;2023-09-19T09:35:56;17.60;99.90
20722;DHT22;10522;52.198;9.890;2023-09-19T09:38:24;17.70;99.90
20722;DHT22;10522;52.198;9.890;2023-09-19T09:40:55;17.90;99.90
20722;DHT22;10522;52.198;9.890;2023-09-19T09:43:40;18.10;99.90
20722;DHT22;10522;52.198;9.890;2023-09-19T09:46:14;18.10;99.90
20722;DHT22;10522;52.198;9.890;2023-09-19T09:48:46;18.10;99.90
20722;DHT22;10522;52.198;9.890;2023-09-19T09:51:32;18.10;99.90
20722;DHT22;10522;52.198;9.890;2023-09-19T09:54:12;17.90;99.90
20722;DHT22;10522;52.198;9.890;2023-09-19T09:56:57;17.80;99.90
20722;DHT22;10522;52.198;9.890;2023-09-19T10:02:18;17.70;99.90
20722;DHT22;10522;52.198;9.890;2023-09-19T10:04:54;17.80;99.90
20722;DHT22;10522;52.198;9.890;2023-09-19T10:07:25;18.00;99.90
20722;DHT22;10522;52.198;9.890;2023-09-19T10:09:53;18.00;99.90
20722;DHT22;10522;52.198;9.890;2023-09-19T10:12:25;18.00;99.90
20722;DHT22;10522;52.198;9.890;2023-09-19T10:14:55;18.10;99.90
20722;DHT22;10522;52.198;9.890;2023-09-19T10:17:23;18.10;99.90
20722;DHT22;10522;52.198;9.890;2023-09-19T10:19:56;18.00;99.90
20722;DHT22;10522;52.198;9.890;2023-09-19T10:22:31;18.00;99.90
20722;DHT22;10522;52.198;9.890;2023-09-19T10:25:01;18.30;99.90
20722;DHT22;10522;52.198;9.890;2023-09-19T10:27:29;18.20;99.90
20722;DHT22;10522;52.198;9.890;2023-09-19T10:30:05;18.20;99.90
20722;DHT22;10522;52.198;9.890;2023-09-19T10:32:35;18.30;99.90
20722;DHT22;10522;52.198;9.890;2023-09-19T10:35:02;18.10;99.90
20722;DHT22;10522;52.198;9.890;2023-09-19T10:37:32;18.30;99.90
20722;DHT22;10522;52.198;9.890;2023-09-19T10:39:59;18.40;99.90
20722;DHT22;10522;52.198;9.890;2023-09-19T10:42:25;18.60;99.90
20722;DHT22;10522;52.198;9.890;2023-09-19T10:44:55;18.80;99.90
20722;DHT22;10522;52.198;9.890;2023-09-19T10:47:25;18.80;99.90
20722;DHT22;10522;52.198;9.890;2023-09-19T10:49:51;18.70;99.90
20722;DHT22;10522;52.198;9.890;2023-09-19T10:52:22;18.70;99.90
20722;DHT22;10522;52.198;9.890;2023-09-19T10:54:51;18.80;99.90
20722;DHT22;10522;52.198;9.890;2023-09-19T10:57:24;18.70;99.90
20722;DHT22;10522;52.198;9.890;2023-09-19T11:00:06;18.60;99.90
20722;DHT22;10522;52.198;9.890;2023-09-19T11:05:40;18.60;99.90
20722;DHT22;10522;52.198;9.890;2023-09-19T11:08:10;18.60;99.90
20722;DHT22;10522;52.198;9.890;2023-09-19T11:10:51;18.60;99.90
20722;DHT22;10522;52.198;9.890;2023-09-19T11:13:27;18.70;99.90
20722;DHT22;10522;52.198;9.890;2023-09-19T11:27:09;18.90;99.90
20722;DHT22;10522;52.198;9.890;2023-09-19T11:29:36;19.20;99.90
20722;DHT22;10522;52.198;9.890;2023-09-19T11:32:03;19.00;99.90
20722;DHT22;10522;52.198;9.890;2023-09-19T11:34:38;18.80;99.90
20722;DHT22;10522;52.198;9.890;2023-09-19T11:39:37;18.90;99.90
20722;DHT22;10522;52.198;9.890;2023-09-19T11:42:41;19.00;99.90
20722;DHT22;10522;52.198;9.890;2023-09-19T11:45:07;19.00;99.90
20722;DHT22;10522;52.198;9.890;2023-09-19T11:47:33;19.00;99.90
20722;DHT22;10522;52.198;9.890;2023-09-19T11:50:01;19.00;99.90
20722;DHT22;10522;52.198;9.890;2023-09-19T11:52:28;18.90;99.90
20722;DHT22;10522;52.198;9.890;2023-09-19T11:55:01;18.80;99.90
20722;DHT22;10522;52.198;9.890;2023-09-19T11:57:28;18.70;99.90
20722;DHT22;10522;52.198;9.890;2023-09-19T11:59:55;18.60;99.90
20722;DHT22;10522;52.198;9.890;2023-09-19T12:02:39;18.70;99.90
20722;DHT22;10522;52.198;9.890;2023-09-19T12:05:06;18.90;99.90
20722;DHT22;10522;52.198;9.890;2023-09-19T12:07:42;19.00;99.90
20722;DHT22;10522;52.198;9.890;2023-09-19T12:10:18;19.20;99.90
20722;DHT22;10522;52.198;9.890;2023-09-19T12:12:49;19.40;99.90
20722;DHT22;10522;52.198;9.890;2023-09-19T12:15:23;19.70;99.90
20722;DHT22;10522;52.198;9.890;2023-09-19T12:17:54;19.60;99.90
20722;DHT22;10522;52.198;9.890;2023-09-19T12:20:20;19.60;99.90
20722;DHT22;10522;52.198;9.890;2023-09-19T12:22:46;19.40;99.90
20722;DHT22;10522;52.198;9.890;2023-09-19T12:25:13;19.10;99.90
20722;DHT22;10522;52.198;9.890;2023-09-19T12:27:47;19.10;99.90
20722;DHT22;10522;52.198;9.890;2023-09-19T12:30:15;19.40;99.90
20722;DHT22;10522;52.198;9.890;2023-09-19T12:32:44;19.40;99.90
20722;DHT22;10522;52.198;9.890;2023-09-19T12:35:10;19.10;99.90
20722;DHT22;10522;52.198;9.890;2023-09-19T12:37:45;19.00;99.90
20722;DHT22;10522;52.198;9.890;2023-09-19T12:40:19;19.00;99.90
20722;DHT22;10522;52.198;9.890;2023-09-19T12:42:53;19.00;99.90
20722;DHT22;10522;52.198;9.890;2023-09-19T12:45:20;19.10;99.90
20722;DHT22;10522;52.198;9.890;2023-09-19T12:48:18;19.00;99.90
20722;DHT22;10522;52.198;9.890;2023-09-19T12:51:07;19.10;99.90
20722;DHT22;10522;52.198;9.890;2023-09-19T12:53:42;19.00;99.90
20722;DHT22;10522;52.198;9.890;2023-09-19T12:56:21;19.10;99.90
20722;DHT22;10522;52.198;9.890;2023-09-19T13:01:15;19.00;99.90
20722;DHT22;10522;52.198;9.890;2023-09-19T13:03:41;19.00;99.90
20722;DHT22;10522;52.198;9.890;2023-09-19T13:06:07;19.00;99.90
20722;DHT22;10522;52.198;9.890;2023-09-19T13:08:38;19.10;99.90
20722;DHT22;10522;52.198;9.890;2023-09-19T13:13:37;19.10;99.90
20722;DHT22;10522;52.198;9.890;2023-09-19T13:16:03;19.20;99.90
20722;DHT22;10522;52.198;9.890;2023-09-19T13:18:53;19.10;99.90
20722;DHT22;10522;52.198;9.890;2023-09-19T13:21:33;19.20;99.90
20722;DHT22;10522;52.198;9.890;2023-09-19T13:24:19;19.20;99.90
20722;DHT22;10522;52.198;9.890;2023-09-19T13:26:45;19.20;99.90
20722;DHT22;10522;52.198;9.890;2023-09-19T13:29:11;19.10;99.90
20722;DHT22;10522;52.198;9.890;2023-09-19T13:31:37;19.00;99.90
20722;DHT22;10522;52.198;9.890;2023-09-19T13:34:07;19.00;99.90
20722;DHT22;10522;52.198;9.890;2023-09-19T13:36:33;19.10;99.90
20722;DHT22;10522;52.198;9.890;2023-09-19T13:38:59;19.20;99.90
20722;DHT22;10522;52.198;9.890;2023-09-19T13:41:25;19.20;99.90
20722;DHT22;10522;52.198;9.890;2023-09-19T13:43:51;19.20;99.90
20722;DHT22;10522;52.198;9.890;2023-09-19T13:46:18;19.30;99.90
20722;DHT22;10522;52.198;9.890;2023-09-19T13:48:51;19.30;99.90
20722;DHT22;10522;52.198;9.890;2023-09-19T13:51:20;19.30;99.90
20722;DHT22;10522;52.198;9.890;2023-09-19T13:53:48;19.20;99.90
20722;DHT22;10522;52.198;9.890;2023-09-19T13:56:14;19.20;99.90
20722;DHT22;10522;52.198;9.890;2023-09-19T13:58:39;19.20;99.90
20722;DHT22;10522;52.198;9.890;2023-09-19T14:01:08;19.20;99.90
20722;DHT22;10522;52.198;9.890;2023-09-19T14:03:41;19.10;99.90
20722;DHT22;10522;52.198;9.890;2023-09-19T14:06:16;19.20;99.90
20722;DHT22;10522;52.198;9.890;2023-09-19T14:08:42;19.10;99.90
20722;DHT22;10522;52.198;9.890;2023-09-19T14:11:08;19.20;99.90
20722;DHT22;10522;52.198;9.890;2023-09-19T14:13:34;19.30;99.90
20722;DHT22;10522;52.198;9.890;2023-09-19T14:16:04;19.20;99.90
20722;DHT22;10522;52.198;9.890;2023-09-19T14:18:30;19.20;99.90
20722;DHT22;10522;52.198;9.890;2023-09-19T14:20:56;19.40;99.90
20722;DHT22;10522;52.198;9.890;2023-09-19T14:23:22;20.10;99.90
20722;DHT22;10522;52.198;9.890;2023-09-19T14:25:51;20.10;99.90
20722;DHT22;10522;52.198;9.890;2023-09-19T14:28:19;20.50;99.90
20722;DHT22;10522;52.198;9.890;2023-09-19T14:30:44;21.00;99.90
20722;DHT22;10522;52.198;9.890;2023-09-19T14:33:12;21.50;99.90
20722;DHT22;10522;52.198;9.890;2023-09-19T14:35:55;21.60;99.90
20722;DHT22;10522;52.198;9.890;2023-09-19T14:38:31;21.30;99.90
20722;DHT22;10522;52.198;9.890;2023-09-19T14:41:33;20.50;99.90
20722;DHT22;10522;52.198;9.890;2023-09-19T14:43:58;19.90;99.90
20722;DHT22;10522;52.198;9.890;2023-09-19T14:46:24;19.70;99.90
20722;DHT22;10522;52.198;9.890;2023-09-19T14:48:53;20.00;99.90
20722;DHT22;10522;52.198;9.890;2023-09-19T14:51:19;20.90;99.90
20722;DHT22;10522;52.198;9.890;2023-09-19T14:53:45;20.70;99.90
20722;DHT22;10522;52.198;9.890;2023-09-19T14:56:13;21.10;99.90
20722;DHT22;10522;52.198;9.890;2023-09-19T14:58:43;22.10;99.90
20722;DHT22;10522;52.198;9.890;2023-09-19T15:01:13;23.20;99.90
20722;DHT22;10522;52.198;9.890;2023-09-19T15:03:42;22.90;99.90
20722;DHT22;10522;52.198;9.890;2023-09-19T15:06:12;22.20;99.90
20722;DHT22;10522;52.198;9.890;2023-09-19T15:09:02;21.80;99.90
20722;DHT22;10522;52.198;9.890;2023-09-19T15:11:33;21.70;99.90
20722;DHT22;10522;52.198;9.890;2023-09-19T15:13:59;22.20;99.90
20722;DHT22;10522;52.198;9.890;2023-09-19T15:16:27;22.40;99.90
20722;DHT22;10522;52.198;9.890;2023-09-19T15:18:53;21.90;99.90
20722;DHT22;10522;52.198;9.890;2023-09-19T15:21:20;21.80;99.90
20722;DHT22;10522;52.198;9.890;2023-09-19T15:23:46;21.40;99.90
20722;DHT22;10522;52.198;9.890;2023-09-19T15:26:13;21.50;99.90
20722;DHT22;10522;52.198;9.890;2023-09-19T15:28:40;21.00;99.90
20722;DHT22;10522;52.198;9.890;2023-09-19T15:31:12;21.20;99.90
20722;DHT22;10522;52.198;9.890;2023-09-19T15:33:40;21.10;99.90
20722;DHT22;10522;52.198;9.890;2023-09-19T15:36:09;20.90;99.90
20722;DHT22;10522;52.198;9.890;2023-09-19T15:39:08;21.40;99.90
20722;DHT22;10522;52.198;9.890;2023-09-19T15:41:41;22.90;99.90
20722;DHT22;10522;52.198;9.890;2023-09-19T15:44:15;23.40;99.90
20722;DHT22;10522;52.198;9.890;2023-09-19T15:46:42;23.60;99.90
20722;DHT22;10522;52.198;9.890;2023-09-19T15:49:11;23.40;99.90
20722;DHT22;10522;52.198;9.890;2023-09-19T15:51:38;23.60;99.90
20722;DHT22;10522;52.198;9.890;2023-09-19T15:54:13;24.00;99.90
20722;DHT22;10522;52.198;9.890;2023-09-19T15:56:44;24.20;99.90
20722;DHT22;10522;52.198;9.890;2023-09-19T15:59:12;24.30;99.90
20722;DHT22;10522;52.198;9.890;2023-09-19T16:01:44;24.20;99.90
20722;DHT22;10522;52.198;9.890;2023-09-19T16:04:12;24.60;99.90
20722;DHT22;10522;52.198;9.890;2023-09-19T16:06:39;24.10;99.90
20722;DHT22;10522;52.198;9.890;2023-09-19T16:09:05;22.90;99.90
20722;DHT22;10522;52.198;9.890;2023-09-19T16:11:35;21.70;99.90
20722;DHT22;10522;52.198;9.890;2023-09-19T16:14:01;21.00;99.90
20722;DHT22;10522;52.198;9.890;2023-09-19T16:16:28;20.20;99.90
20722;DHT22;10522;52.198;9.890;2023-09-19T16:19:00;19.80;99.90
20722;DHT22;10522;52.198;9.890;2023-09-19T16:21:31;19.60;99.90
20722;DHT22;10522;52.198;9.890;2023-09-19T16:23:58;19.40;99.90
20722;DHT22;10522;52.198;9.890;2023-09-19T16:26:27;19.40;99.90
20722;DHT22;10522;52.198;9.890;2023-09-19T16:28:56;19.20;99.90
20722;DHT22;10522;52.198;9.890;2023-09-19T16:31:26;19.20;99.90
20722;DHT22;10522;52.198;9.890;2023-09-19T16:33:52;19.20;99.90
20722;DHT22;10522;52.198;9.890;2023-09-19T16:36:19;19.20;99.90
20722;DHT22;10522;52.198;9.890;2023-09-19T16:38:46;19.00;99.90
20722;DHT22;10522;52.198;9.890;2023-09-19T16:41:17;19.00;99.90
20722;DHT22;10522;52.198;9.890;2023-09-19T16:43:44;18.90;99.90